Maxxride — FAB5110 — position and weather

sailwx.info

Track history (hours):
 
Tides and Currents Weather Stations Pressure Air Temp Water Temp Dewpoint Dewpoint Depression Visibility Wind Speed Wind Dir Waves Ship Positions

Maxxride

Last reported at 2018-May-27 02:59 UTC. Time now 2018-May-27 03:10 UTC.
Position N 47°32' W 002°54'.

Length 11 m.

Type: Sailing vessel. MMSI: 227209990.

Date/timePositionNaut miles runAvg speedWind from/ knotsBaromVisibWave heightAir tempDewpointWater temp
2018-May-27 02:59N 47°32' W 002°54'0 0.0
2018-May-27 02:29N 47°32' W 002°54'0 0.0
2018-May-27 01:53N 47°32' W 002°54'0 0.0
2018-May-27 01:29N 47°32' W 002°54'0 0.0
2018-May-27 00:59N 47°32' W 002°54'0 0.0
2018-May-27 00:20N 47°32' W 002°54'0 0.0
2018-May-26 23:56N 47°32' W 002°54'0 0.0
2018-May-26 23:17N 47°32' W 002°54'0 0.0
2018-May-26 22:59N 47°32' W 002°54'0 0.0
2018-May-26 22:26N 47°32' W 002°54'0 0.0
2018-May-26 21:47N 47°32' W 002°54'0 0.0
2018-May-26 21:29N 47°32' W 002°54'0 0.0
2018-May-26 20:59N 47°32' W 002°54'0 0.0
2018-May-26 20:29N 47°32' W 002°54'0 0.0
2018-May-26 19:59N 47°32' W 002°54'0 0.0
2018-May-26 19:29N 47°32' W 002°54'0 0.0
2018-May-26 18:59N 47°32' W 002°54'0 0.0
2018-May-26 18:29N 47°32' W 002°54'0 0.0
2018-May-26 17:56N 47°32' W 002°54'0 0.0
2018-May-26 17:29N 47°32' W 002°54'0 0.0
2018-May-26 16:59N 47°32' W 002°54'0 0.0
2018-May-26 16:29N 47°32' W 002°54'0 0.0
2018-May-26 15:59N 47°32' W 002°54'0 0.0
2018-May-26 15:29N 47°32' W 002°54'0 0.0
2018-May-26 14:59N 47°32' W 002°54'0 0.0
2018-May-26 14:29N 47°32' W 002°54'0 0.0
2018-May-26 13:56N 47°32' W 002°54'0 0.0
2018-May-26 13:29N 47°32' W 002°54'0 0.0
2018-May-26 12:59N 47°32' W 002°54'0 0.0
2018-May-26 12:29N 47°32' W 002°54'0 0.0
2018-May-26 11:59N 47°32' W 002°54'0 0.0
2018-May-26 11:29N 47°32' W 002°54'0 0.0
2018-May-26 10:59N 47°32' W 002°54'0 0.0
2018-May-26 10:29N 47°32' W 002°54'0 0.0
2018-May-26 09:59N 47°32' W 002°54'0 0.0
2018-May-26 09:29N 47°32' W 002°54'0 0.0
2018-May-26 08:59N 47°32' W 002°54'0 0.0
2018-May-26 08:29N 47°32' W 002°54'0 0.0
2018-May-26 07:59N 47°32' W 002°54'0 0.0
2018-May-26 07:29N 47°32' W 002°54'0 0.0
2018-May-26 06:59N 47°32' W 002°54'0 0.0
2018-May-26 06:26N 47°32' W 002°54'0 0.0
2018-May-26 05:29N 47°32' W 002°54'0 0.0
2018-May-26 04:56N 47°32' W 002°54'0 0.0
2018-May-26 04:29N 47°32' W 002°54'0 0.0
2018-May-26 03:59N 47°32' W 002°54'0 0.0
2018-May-26 03:26N 47°32' W 002°54'0 0.0
2018-May-26 02:53N 47°32' W 002°54'0 0.0
2018-May-26 02:23N 47°32' W 002°54'0 0.0
2018-May-26 01:59N 47°32' W 002°54'0 0.0
2018-May-26 01:29N 47°32' W 002°54'0 0.0
2018-May-26 00:59N 47°32' W 002°54'0 0.0
2018-May-26 00:29N 47°32' W 002°54'0 0.0
2018-May-25 23:53N 47°32' W 002°54'0 0.0
2018-May-25 23:26N 47°32' W 002°54'0 0.0
2018-May-25 22:59N 47°32' W 002°54'0 0.0
2018-May-25 22:29N 47°32' W 002°54'0 0.0
2018-May-25 21:59N 47°32' W 002°54'0 0.0
2018-May-25 21:29N 47°32' W 002°54'0 0.0
2018-May-25 20:59N 47°32' W 002°54'0 0.0
2018-May-25 20:29N 47°32' W 002°54'0 0.0
2018-May-25 19:59N 47°32' W 002°54'0 0.0
2018-May-25 19:26N 47°32' W 002°54'0 0.0
2018-May-25 18:59N 47°32' W 002°54'0 0.0
2018-May-25 18:29N 47°32' W 002°54'0 0.0
2018-May-25 17:59N 47°32' W 002°54'0 0.0
2018-May-25 17:29N 47°32' W 002°54'0 0.0
2018-May-25 16:59N 47°32' W 002°54'0 0.0
2018-May-25 16:26N 47°32' W 002°54'0 0.0
2018-May-25 15:59N 47°32' W 002°54'1 3.1
2018-May-25 15:31N 47°31' W 002°55'3 5.4
2018-May-25 15:00N 47°28' W 002°54'3 5.8
2018-May-25 14:31N 47°26' W 002°54'6 0.3
2018-May-24 19:08N 47°20' W 002°52'0 0.0
2018-May-24 18:59N 47°20' W 002°52'0 0.1
2018-May-24 16:15N 47°20' W 002°51'  
2018-May-22 08:22N 47°05' W 002°11'1 3.2
2018-May-22 07:57N 47°06' W 002°09'23 1.3
2018-May-21 14:10N 47°19' W 002°37'1 5.5
2018-May-21 13:59N 47°19' W 002°38'3 5.5
2018-May-21 13:28N 47°21' W 002°41'3 5.4
2018-May-21 12:59N 47°23' W 002°44'3 5.3
2018-May-21 12:30N 47°25' W 002°47'3 5.1
2018-May-21 12:00N 47°27' W 002°49'3 5.0
2018-May-21 11:30N 47°29' W 002°52'3 5.1
2018-May-21 11:00N 47°31' W 002°54'2 3.2
2018-May-21 10:30N 47°33' W 002°54'0 0.1
2018-May-21 10:00N 47°33' W 002°54'0 0.2
2018-May-21 09:30N 47°32' W 002°54'0 0.0
2018-May-21 09:00N 47°32' W 002°54'0 0.0
2018-May-21 08:29N 47°32' W 002°54'0 0.0
2018-May-21 07:59N 47°32' W 002°54'0 0.0
2018-May-21 07:29N 47°32' W 002°54'0 0.0
2018-May-21 06:56N 47°32' W 002°54'0 0.0
2018-May-21 06:29N 47°32' W 002°54'0 0.0
2018-May-21 05:59N 47°32' W 002°54'0 0.0
2018-May-21 05:29N 47°32' W 002°54'0 0.0
2018-May-21 04:59N 47°32' W 002°54'0 0.0
2018-May-21 04:29N 47°32' W 002°54'0 0.0
2018-May-21 03:59N 47°32' W 002°54'0 0.0
2018-May-21 03:29N 47°32' W 002°54'0 0.0
2018-May-21 02:59N 47°32' W 002°54'0 0.0
2018-May-21 02:29N 47°32' W 002°54'0 0.0
2018-May-21 01:59N 47°32' W 002°54'0 0.0
2018-May-21 01:29N 47°32' W 002°54'0 0.0
2018-May-21 00:56N 47°32' W 002°54'0 0.0
2018-May-21 00:29N 47°32' W 002°54'0 0.0
2018-May-20 23:59N 47°32' W 002°54'0 0.0
2018-May-20 23:29N 47°32' W 002°54'0 0.0
2018-May-20 22:59N 47°32' W 002°54'0 0.0
2018-May-20 22:30N 47°32' W 002°54'0 0.0
2018-May-20 21:59N 47°32' W 002°54'0 0.0
2018-May-20 21:29N 47°32' W 002°54'0 0.0
2018-May-20 21:00N 47°32' W 002°54'0 0.0
2018-May-20 20:29N 47°32' W 002°54'0 0.0
2018-May-20 19:59N 47°32' W 002°54'0 0.0
2018-May-20 19:30N 47°32' W 002°54'0 0.0
2018-May-20 19:00N 47°32' W 002°54'0 0.0
2018-May-20 18:30N 47°32' W 002°54'0 0.0
2018-May-20 17:59N 47°32' W 002°54'0 0.0
2018-May-20 17:10N 47°32' W 002°54'0 0.0
2018-May-20 16:58N 47°32' W 002°54'0 0.0
2018-May-20 16:28N 47°32' W 002°54'0 0.0
2018-May-20 15:58N 47°32' W 002°54'0 0.0
2018-May-20 15:28N 47°32' W 002°54'0 0.8
2018-May-20 15:01N 47°32' W 002°54'2 3.4
2018-May-20 14:29N 47°31' W 002°54'3 5.8
2018-May-20 14:00N 47°28' W 002°54'1 2.9
2018-May-20 13:30N 47°26' W 002°53'2 3.4
2018-May-20 13:00N 47°28' W 002°54'2 4.0
2018-May-20 12:30N 47°30' W 002°54'2 3.6
2018-May-20 12:00N 47°32' W 002°55'1 1.9
2018-May-20 11:29N 47°32' W 002°54'0 0.0
2018-May-20 10:59N 47°32' W 002°54'0 0.0
2018-May-20 10:29N 47°32' W 002°54'0 0.0
2018-May-20 09:59N 47°32' W 002°54'0 0.0
2018-May-20 09:29N 47°32' W 002°54'0 0.0
2018-May-20 08:59N 47°32' W 002°54'0 0.0
2018-May-20 08:29N 47°32' W 002°54'0 0.0
2018-May-20 07:59N 47°32' W 002°54'0 0.0
2018-May-20 07:29N 47°32' W 002°54'0 0.0
2018-May-20 06:59N 47°32' W 002°54'0 0.0
2018-May-20 06:29N 47°32' W 002°54'0 0.0
2018-May-20 05:59N 47°32' W 002°54'0 0.0
2018-May-20 05:29N 47°32' W 002°54'0 0.0
2018-May-20 04:59N 47°32' W 002°54'0 0.0
2018-May-20 04:29N 47°32' W 002°54'0 0.0
2018-May-20 03:56N 47°32' W 002°54'0 0.0
2018-May-20 03:29N 47°32' W 002°54'0 0.0
2018-May-20 02:59N 47°32' W 002°54'0 0.0
2018-May-20 02:29N 47°32' W 002°54'0 0.0
2018-May-20 01:59N 47°32' W 002°54'0 0.0
2018-May-20 01:29N 47°32' W 002°54'0 0.0
2018-May-20 00:59N 47°32' W 002°54'0 0.0
2018-May-20 00:29N 47°32' W 002°54'0 0.0
2018-May-19 23:59N 47°32' W 002°54'0 0.0
2018-May-19 23:29N 47°32' W 002°54'0 0.0
2018-May-19 22:59N 47°32' W 002°54'0 0.0
2018-May-19 22:29N 47°32' W 002°54'0 0.0
2018-May-19 21:59N 47°32' W 002°54'0 0.0
2018-May-19 21:29N 47°32' W 002°54'0 0.0
2018-May-19 20:59N 47°32' W 002°54'0 0.0
2018-May-19 20:29N 47°32' W 002°54'0 0.0
2018-May-19 19:59N 47°32' W 002°54'0 0.0
2018-May-19 19:29N 47°32' W 002°54'0 0.0
2018-May-19 18:59N 47°32' W 002°54'0 0.0
2018-May-19 18:29N 47°32' W 002°54'0 0.0
2018-May-19 17:59N 47°32' W 002°54'0 0.0
2018-May-19 17:29N 47°32' W 002°54'0 0.0
2018-May-19 16:59N 47°32' W 002°54'0 0.0
2018-May-19 16:29N 47°32' W 002°54'0 0.0
2018-May-19 15:59N 47°32' W 002°54'0 0.0
2018-May-19 15:29N 47°32' W 002°54'0 0.0
2018-May-19 14:59N 47°32' W 002°54'0 0.0
2018-May-19 14:29N 47°32' W 002°54'0 0.0
2018-May-19 13:59N 47°32' W 002°54'0 0.0
2018-May-19 13:29N 47°32' W 002°54'  
Track history (hours):
 
Tides and Currents Weather Stations Pressure Air Temp Water Temp Dewpoint Dewpoint Depression Visibility Wind Speed Wind Dir Waves Ship Positions

Maxxride

Last reported at 2018-May-27 02:59 UTC. Time now 2018-May-27 03:10 UTC.
Position N 47°32' W 002°54'.

Length 11 m.

Type: Sailing vessel. MMSI: 227209990.

Date/timePositionNaut miles runAvg speedWind from/ knotsBaromVisibWave heightAir tempDewpointWater temp
2018-May-27 02:59N 47°32' W 002°54'0 0.0
2018-May-27 02:29N 47°32' W 002°54'0 0.0
2018-May-27 01:53N 47°32' W 002°54'0 0.0
2018-May-27 01:29N 47°32' W 002°54'0 0.0
2018-May-27 00:59N 47°32' W 002°54'0 0.0
2018-May-27 00:20N 47°32' W 002°54'0 0.0
2018-May-26 23:56N 47°32' W 002°54'0 0.0
2018-May-26 23:17N 47°32' W 002°54'0 0.0
2018-May-26 22:59N 47°32' W 002°54'0 0.0
2018-May-26 22:26N 47°32' W 002°54'0 0.0
2018-May-26 21:47N 47°32' W 002°54'0 0.0
2018-May-26 21:29N 47°32' W 002°54'0 0.0
2018-May-26 20:59N 47°32' W 002°54'0 0.0
2018-May-26 20:29N 47°32' W 002°54'0 0.0
2018-May-26 19:59N 47°32' W 002°54'0 0.0
2018-May-26 19:29N 47°32' W 002°54'0 0.0
2018-May-26 18:59N 47°32' W 002°54'0 0.0
2018-May-26 18:29N 47°32' W 002°54'0 0.0
2018-May-26 17:56N 47°32' W 002°54'0 0.0
2018-May-26 17:29N 47°32' W 002°54'0 0.0
2018-May-26 16:59N 47°32' W 002°54'0 0.0
2018-May-26 16:29N 47°32' W 002°54'0 0.0
2018-May-26 15:59N 47°32' W 002°54'0 0.0
2018-May-26 15:29N 47°32' W 002°54'0 0.0
2018-May-26 14:59N 47°32' W 002°54'0 0.0
2018-May-26 14:29N 47°32' W 002°54'0 0.0
2018-May-26 13:56N 47°32' W 002°54'0 0.0
2018-May-26 13:29N 47°32' W 002°54'0 0.0
2018-May-26 12:59N 47°32' W 002°54'0 0.0
2018-May-26 12:29N 47°32' W 002°54'0 0.0
2018-May-26 11:59N 47°32' W 002°54'0 0.0
2018-May-26 11:29N 47°32' W 002°54'0 0.0
2018-May-26 10:59N 47°32' W 002°54'0 0.0
2018-May-26 10:29N 47°32' W 002°54'0 0.0
2018-May-26 09:59N 47°32' W 002°54'0 0.0
2018-May-26 09:29N 47°32' W 002°54'0 0.0
2018-May-26 08:59N 47°32' W 002°54'0 0.0
2018-May-26 08:29N 47°32' W 002°54'0 0.0
2018-May-26 07:59N 47°32' W 002°54'0 0.0
2018-May-26 07:29N 47°32' W 002°54'0 0.0
2018-May-26 06:59N 47°32' W 002°54'0 0.0
2018-May-26 06:26N 47°32' W 002°54'0 0.0
2018-May-26 05:29N 47°32' W 002°54'0 0.0
2018-May-26 04:56N 47°32' W 002°54'0 0.0
2018-May-26 04:29N 47°32' W 002°54'0 0.0
2018-May-26 03:59N 47°32' W 002°54'0 0.0
2018-May-26 03:26N 47°32' W 002°54'0 0.0
2018-May-26 02:53N 47°32' W 002°54'0 0.0
2018-May-26 02:23N 47°32' W 002°54'0 0.0
2018-May-26 01:59N 47°32' W 002°54'0 0.0
2018-May-26 01:29N 47°32' W 002°54'0 0.0
2018-May-26 00:59N 47°32' W 002°54'0 0.0
2018-May-26 00:29N 47°32' W 002°54'0 0.0
2018-May-25 23:53N 47°32' W 002°54'0 0.0
2018-May-25 23:26N 47°32' W 002°54'0 0.0
2018-May-25 22:59N 47°32' W 002°54'0 0.0
2018-May-25 22:29N 47°32' W 002°54'0 0.0
2018-May-25 21:59N 47°32' W 002°54'0 0.0
2018-May-25 21:29N 47°32' W 002°54'0 0.0
2018-May-25 20:59N 47°32' W 002°54'0 0.0
2018-May-25 20:29N 47°32' W 002°54'0 0.0
2018-May-25 19:59N 47°32' W 002°54'0 0.0
2018-May-25 19:26N 47°32' W 002°54'0 0.0
2018-May-25 18:59N 47°32' W 002°54'0 0.0
2018-May-25 18:29N 47°32' W 002°54'0 0.0
2018-May-25 17:59N 47°32' W 002°54'0 0.0
2018-May-25 17:29N 47°32' W 002°54'0 0.0
2018-May-25 16:59N 47°32' W 002°54'0 0.0
2018-May-25 16:26N 47°32' W 002°54'0 0.0
2018-May-25 15:59N 47°32' W 002°54'1 3.1
2018-May-25 15:31N 47°31' W 002°55'3 5.4
2018-May-25 15:00N 47°28' W 002°54'3 5.8
2018-May-25 14:31N 47°26' W 002°54'6 0.3
2018-May-24 19:08N 47°20' W 002°52'0 0.0
2018-May-24 18:59N 47°20' W 002°52'0 0.1
2018-May-24 16:15N 47°20' W 002°51'  
2018-May-22 08:22N 47°05' W 002°11'1 3.2
2018-May-22 07:57N 47°06' W 002°09'23 1.3
2018-May-21 14:10N 47°19' W 002°37'1 5.5
2018-May-21 13:59N 47°19' W 002°38'3 5.5
2018-May-21 13:28N 47°21' W 002°41'3 5.4
2018-May-21 12:59N 47°23' W 002°44'3 5.3
2018-May-21 12:30N 47°25' W 002°47'3 5.1
2018-May-21 12:00N 47°27' W 002°49'3 5.0
2018-May-21 11:30N 47°29' W 002°52'3 5.1
2018-May-21 11:00N 47°31' W 002°54'2 3.2
2018-May-21 10:30N 47°33' W 002°54'0 0.1
2018-May-21 10:00N 47°33' W 002°54'0 0.2
2018-May-21 09:30N 47°32' W 002°54'0 0.0
2018-May-21 09:00N 47°32' W 002°54'0 0.0
2018-May-21 08:29N 47°32' W 002°54'0 0.0
2018-May-21 07:59N 47°32' W 002°54'0 0.0
2018-May-21 07:29N 47°32' W 002°54'0 0.0
2018-May-21 06:56N 47°32' W 002°54'0 0.0
2018-May-21 06:29N 47°32' W 002°54'0 0.0
2018-May-21 05:59N 47°32' W 002°54'0 0.0
2018-May-21 05:29N 47°32' W 002°54'0 0.0
2018-May-21 04:59N 47°32' W 002°54'0 0.0
2018-May-21 04:29N 47°32' W 002°54'0 0.0
2018-May-21 03:59N 47°32' W 002°54'0 0.0
2018-May-21 03:29N 47°32' W 002°54'0 0.0
2018-May-21 02:59N 47°32' W 002°54'0 0.0
2018-May-21 02:29N 47°32' W 002°54'0 0.0
2018-May-21 01:59N 47°32' W 002°54'0 0.0
2018-May-21 01:29N 47°32' W 002°54'0 0.0
2018-May-21 00:56N 47°32' W 002°54'0 0.0
2018-May-21 00:29N 47°32' W 002°54'0 0.0
2018-May-20 23:59N 47°32' W 002°54'0 0.0
2018-May-20 23:29N 47°32' W 002°54'0 0.0
2018-May-20 22:59N 47°32' W 002°54'0 0.0
2018-May-20 22:30N 47°32' W 002°54'0 0.0
2018-May-20 21:59N 47°32' W 002°54'0 0.0
2018-May-20 21:29N 47°32' W 002°54'0 0.0
2018-May-20 21:00N 47°32' W 002°54'0 0.0
2018-May-20 20:29N 47°32' W 002°54'0 0.0
2018-May-20 19:59N 47°32' W 002°54'0 0.0
2018-May-20 19:30N 47°32' W 002°54'0 0.0
2018-May-20 19:00N 47°32' W 002°54'0 0.0
2018-May-20 18:30N 47°32' W 002°54'0 0.0
2018-May-20 17:59N 47°32' W 002°54'0 0.0
2018-May-20 17:10N 47°32' W 002°54'0 0.0
2018-May-20 16:58N 47°32' W 002°54'0 0.0
2018-May-20 16:28N 47°32' W 002°54'0 0.0
2018-May-20 15:58N 47°32' W 002°54'0 0.0
2018-May-20 15:28N 47°32' W 002°54'0 0.8
2018-May-20 15:01N 47°32' W 002°54'2 3.4
2018-May-20 14:29N 47°31' W 002°54'3 5.8
2018-May-20 14:00N 47°28' W 002°54'1 2.9
2018-May-20 13:30N 47°26' W 002°53'2 3.4
2018-May-20 13:00N 47°28' W 002°54'2 4.0
2018-May-20 12:30N 47°30' W 002°54'2 3.6
2018-May-20 12:00N 47°32' W 002°55'1 1.9
2018-May-20 11:29N 47°32' W 002°54'0 0.0
2018-May-20 10:59N 47°32' W 002°54'0 0.0
2018-May-20 10:29N 47°32' W 002°54'0 0.0
2018-May-20 09:59N 47°32' W 002°54'0 0.0
2018-May-20 09:29N 47°32' W 002°54'0 0.0
2018-May-20 08:59N 47°32' W 002°54'0 0.0
2018-May-20 08:29N 47°32' W 002°54'0 0.0
2018-May-20 07:59N 47°32' W 002°54'0 0.0
2018-May-20 07:29N 47°32' W 002°54'0 0.0
2018-May-20 06:59N 47°32' W 002°54'0 0.0
2018-May-20 06:29N 47°32' W 002°54'0 0.0
2018-May-20 05:59N 47°32' W 002°54'0 0.0
2018-May-20 05:29N 47°32' W 002°54'0 0.0
2018-May-20 04:59N 47°32' W 002°54'0 0.0
2018-May-20 04:29N 47°32' W 002°54'0 0.0
2018-May-20 03:56N 47°32' W 002°54'0 0.0
2018-May-20 03:29N 47°32' W 002°54'0 0.0
2018-May-20 02:59N 47°32' W 002°54'0 0.0
2018-May-20 02:29N 47°32' W 002°54'0 0.0
2018-May-20 01:59N 47°32' W 002°54'0 0.0
2018-May-20 01:29N 47°32' W 002°54'0 0.0
2018-May-20 00:59N 47°32' W 002°54'0 0.0
2018-May-20 00:29N 47°32' W 002°54'0 0.0
2018-May-19 23:59N 47°32' W 002°54'0 0.0
2018-May-19 23:29N 47°32' W 002°54'0 0.0
2018-May-19 22:59N 47°32' W 002°54'0 0.0
2018-May-19 22:29N 47°32' W 002°54'0 0.0
2018-May-19 21:59N 47°32' W 002°54'0 0.0
2018-May-19 21:29N 47°32' W 002°54'0 0.0
2018-May-19 20:59N 47°32' W 002°54'0 0.0
2018-May-19 20:29N 47°32' W 002°54'0 0.0
2018-May-19 19:59N 47°32' W 002°54'0 0.0
2018-May-19 19:29N 47°32' W 002°54'0 0.0
2018-May-19 18:59N 47°32' W 002°54'0 0.0
2018-May-19 18:29N 47°32' W 002°54'0 0.0
2018-May-19 17:59N 47°32' W 002°54'0 0.0
2018-May-19 17:29N 47°32' W 002°54'0 0.0
2018-May-19 16:59N 47°32' W 002°54'0 0.0
2018-May-19 16:29N 47°32' W 002°54'0 0.0
2018-May-19 15:59N 47°32' W 002°54'0 0.0
2018-May-19 15:29N 47°32' W 002°54'0 0.0
2018-May-19 14:59N 47°32' W 002°54'0 0.0
2018-May-19 14:29N 47°32' W 002°54'0 0.0
2018-May-19 13:59N 47°32' W 002°54'0 0.0
2018-May-19 13:29N 47°32' W 002°54'  

Dump ship's entire track history